Terminal Aerodrome Forecast
Issued by NWS Goodland, KS

Home | Current Version | Previous Version | Text Only | Print | Product List | Glossary On
Versions: 1 2 3 4 5 6 7 8 9 10 11 12 13 14 15
000
FTUS43 KGLD 261726
TAFGLD
TAF
KGLD 261726Z 2618/2718 32020G30KT P6SM SCT100
     FM270100 33011KT P6SM BKN060
     FM270500 01007KT P6SM BKN040
     FM270800 VRB05KT P6SM BKN045
     FM271200 16006KT P6SM SCT045 BKN060
     FM271400 21009KT P6SM BKN060
     FM271600 25011KT P6SM BKN060
     FM271700 29011KT P6SM SCT060 BKN150=

USA.gov is the U.S. government's official web portal to all federal, state and local government web resources and services.